logo tempoitalia

Diretta Meteo Dushanbe, Tajikistanlunedì 31 agosto ore 10:00

Mappa
Sereno 32 °C Sereno 24 Ore: T.min 22 T.max 37
Ponente Nord Km/h 7.2 Punto di rugiada: 9 °C Umidità: 24% Visibilità: 10 Km
Il sole sorge alle: 05:53 Il sole tramonta alle: 18:57
31 Agosto 2026 10:00 tempo osservato: Sereno Sereno 32 24 1012 vento: Nord N 7.2
31 Agosto 2026 09:30 tempo osservato: Sereno Sereno 31 25 1012 vento: Nord N 3.6
31 Agosto 2026 09:00 tempo osservato: Sereno Sereno 29 30 1012 vento: Nord N 7.2
31 Agosto 2026 08:30 tempo osservato: Sereno Sereno 29 32 1012 vento: Nord N 3.6
31 Agosto 2026 08:00 tempo osservato: Sereno Sereno 26 36 1012 vento: Nord N 3.6
31 Agosto 2026 07:30 tempo osservato: Sereno Sereno 27 30 1012 vento: Nord N 3.6
31 Agosto 2026 07:00 tempo osservato: Sereno Sereno 25 33 1011 vento: Nord N 7.2
31 Agosto 2026 06:30 tempo osservato: Sereno Sereno 23 35 1011 vento: Nord N 7.2
31 Agosto 2026 06:00 tempo osservato: Sereno Sereno 23 38 1011 vento: Nord N 7.2
31 Agosto 2026 05:30 tempo osservato: Sereno Sereno 22 40 1011 vento: Nord N 7.2
31 Agosto 2026 05:00 tempo osservato: Sereno Sereno 23 40 1011 vento: Nord N 3.6
31 Agosto 2026 04:30 tempo osservato: Sereno Sereno 23 40 1011 vento: Nord N 3.6
31 Agosto 2026 04:00 tempo osservato: Sereno Sereno 23 40 1011 vento: Nord N 0
31 Agosto 2026 03:30 tempo osservato: Sereno Sereno 23 43 1010 vento: Nord N 3.6
31 Agosto 2026 03:00 tempo osservato: Sereno Sereno 23 43 1010 vento: Nord N 3.6
31 Agosto 2026 02:30 tempo osservato: Sereno Sereno 24 38 1010 vento: Nord N 3.6
31 Agosto 2026 02:00 tempo osservato: Sereno Sereno 24 38 1010 vento: Nord N 7.2
31 Agosto 2026 01:30 tempo osservato: Sereno Sereno 24 38 1010 vento: Nord N 3.6
31 Agosto 2026 01:00 tempo osservato: Sereno Sereno 24 41 1010 vento: Nord N 7.2
31 Agosto 2026 00:30 tempo osservato: Sereno Sereno 24 41 1010 vento: Nord N 7.2
31 Agosto 2026 00:00 tempo osservato: Sereno Sereno 25 36 1010 vento: Nord N 7.2
30 Agosto 2026 23:30 tempo osservato: Sereno Sereno 25 36 1010 vento: Nord N 7.2
30 Agosto 2026 23:00 tempo osservato: Sereno Sereno 26 34 1010 vento: Nord N 7.2
30 Agosto 2026 22:30 tempo osservato: Sereno Sereno 27 32 1010 vento: Nord N 3.6
30 Agosto 2026 22:00 tempo osservato: Sereno Sereno 29 25 1010 vento: Nord N 7.2
30 Agosto 2026 21:30 tempo osservato: Sereno Sereno 29 26 1010 vento: Nord N 7.2
30 Agosto 2026 21:00 tempo osservato: Sereno Sereno 29 25 1010 vento: Nord N 7.2
30 Agosto 2026 20:30 tempo osservato: Sereno Sereno 30 27 1009 vento: Nord N 3.6
30 Agosto 2026 20:00 tempo osservato: Sereno Sereno 29 28 1009 vento: Nord N 7.2
30 Agosto 2026 19:30 tempo osservato: Sereno Sereno 31 23 1008 vento: Nord N 7.2
30 Agosto 2026 19:00 tempo osservato: Sereno Sereno 32 21 1008 vento: Nord N 7.2
30 Agosto 2026 18:30 tempo osservato: Sereno Sereno 34 15 1008 vento: Nord O 10.8
30 Agosto 2026 18:00 tempo osservato: Sereno Sereno 35 17 1008 vento: Nord O 18
30 Agosto 2026 17:30 tempo osservato: Sereno Sereno 36 13 1008 vento: Nord O 18
30 Agosto 2026 17:00 tempo osservato: Sereno Sereno 36 13 1008 vento: Nord O 18
30 Agosto 2026 16:30 tempo osservato: Sereno Sereno 37 12 1008 vento: Nord O 14.4
30 Agosto 2026 16:00 tempo osservato: Sereno Sereno 37 13 1008 vento: Nord O 14.4
30 Agosto 2026 15:30 tempo osservato: Sereno Sereno 37 13 1008 vento: Nord O 14.4
30 Agosto 2026 15:00 tempo osservato: Sereno Sereno 37 13 1008 vento: Nord O 14.4
30 Agosto 2026 14:30 tempo osservato: Sereno Sereno 37 13 1008 vento: Nord O/NO 10.8
30 Agosto 2026 14:00 tempo osservato: Sereno Sereno 37 13 1009 vento: Nord N 10.8
30 Agosto 2026 13:30 tempo osservato: Sereno Sereno 37 12 1009 vento: Nord O/SO 10.8
30 Agosto 2026 13:00 tempo osservato: Sereno Sereno 36 14 1009 vento: Nord O 10.8
30 Agosto 2026 12:30 tempo osservato: Sereno Sereno 37 12 1010 vento: Nord O 10.8
30 Agosto 2026 12:00 tempo osservato: Sereno Sereno 36 18 1010 vento: Nord S/SO 10.8
30 Agosto 2026 11:30 tempo osservato: Sereno Sereno 35 17 1010 vento: Nord N 7.2
30 Agosto 2026 11:00 tempo osservato: Sereno Sereno 34 18 1010 vento: Nord N 7.2